Time;durP1;ratioP1;P1;durP2;ratioP2;P2;SDS_P1;SDS_P2;PMS_P1;PMS_P2;Temp;Humidity;BMP_temperature;BMP_pressure;BME280_temperature;BME280_humidity;BME280_pressure;Samples;Min_cycle;Max_cycle;Signal;HPM_P1;HPM_P2
2023/08/09 00:02:28;;;;;;;0.82;0.60;;;;;;;15.05;68.97;100073.97;20941429;28;20353;-81
2023/08/09 00:12:31;;;;;;;2.60;0.73;;;;;;;14.83;69.59;100100.03;20984639;28;20257;-87
2023/08/09 00:22:34;;;;;;;1.00;0.77;;;;;;;15.06;69.17;100084.13;20962437;28;20198;-81
2023/08/09 00:32:38;;;;;;;0.83;0.40;;;;;;;15.56;66.76;100081.69;20966268;28;20683;-84
2023/08/09 00:42:41;;;;;;;1.13;0.10;;;;;;;15.36;67.41;100117.66;20960990;28;20263;-84
2023/08/09 00:52:46;;;;;;;0.10;0.10;;;;;;;15.22;66.64;100137.13;21076766;28;20259;-88
2023/08/09 01:02:49;;;;;;;0.10;0.10;;;;;;;14.91;68.85;100130.22;21045047;28;20512;-80
2023/08/09 01:12:57;;;;;;;0.10;0.10;;;;;;;15.39;66.89;100123.41;21041044;28;20263;-78
2023/08/09 01:23:02;;;;;;;0.15;0.15;;;;;;;15.34;67.14;100129.34;21035207;28;20190;-80
2023/08/09 01:33:05;;;;;;;0.10;0.10;;;;;;;14.41;70.65;100122.34;21038491;28;20264;-78
2023/08/09 01:43:08;;;;;;;0.53;0.13;;;;;;;14.99;68.55;100132.09;21025550;28;20214;-80
2023/08/09 01:53:11;;;;;;;0.87;0.20;;;;;;;15.14;69.02;100138.13;21036703;28;20222;-79
2023/08/09 02:03:14;;;;;;;0.20;0.20;;;;;;;14.45;71.23;100168.56;21046116;28;20267;-79
2023/08/09 02:13:16;;;;;;;0.40;0.40;;;;;;;14.95;69.01;100169.97;21071017;28;20213;-82
2023/08/09 02:23:19;;;;;;;0.40;0.40;;;;;;;14.71;70.24;100176.59;21028663;28;20660;-79
2023/08/09 02:33:22;;;;;;;0.50;0.50;;;;;;;15.00;68.04;100161.25;21057569;28;20271;-78
2023/08/09 02:43:25;;;;;;;1.00;0.80;;;;;;;15.33;66.66;100178.72;21020060;28;20222;-79
2023/08/09 02:53:34;;;;;;;0.77;0.77;;;;;;;14.99;68.19;100188.75;20998964;28;20276;-80
2023/08/09 03:03:37;;;;;;;2.17;1.80;;;;;;;15.29;67.59;100196.84;21017522;28;20211;-79
2023/08/09 03:13:40;;;;;;;2.70;2.50;;;;;;;14.98;67.92;100197.59;21018138;28;20222;-83
2023/08/09 03:23:43;;;;;;;3.95;3.38;;;;;;;15.07;67.58;100204.75;21032133;28;20171;-80
2023/08/09 03:33:46;;;;;;;6.10;4.85;;;;;;;14.96;68.40;100209.28;21020173;28;20264;-79
2023/08/09 03:43:48;;;;;;;8.05;6.38;;;;;;;14.72;68.74;100226.38;21069544;28;20236;-80
2023/08/09 03:53:52;;;;;;;10.07;8.20;;;;;;;15.02;67.67;100236.22;21049288;28;20481;-79
2023/08/09 04:03:56;;;;;;;11.97;8.20;;;;;;;14.08;69.54;100266.84;21055448;28;20263;-81
2023/08/09 04:13:59;;;;;;;12.00;9.93;;;;;;;14.48;68.71;100268.94;21047208;28;20210;-79
2023/08/09 04:24:01;;;;;;;14.90;11.82;;;;;;;14.86;67.52;100286.31;21065176;28;20708;-79
2023/08/09 04:34:04;;;;;;;12.27;10.80;;;;;;;14.72;67.02;100292.38;21044207;28;20214;-80
2023/08/09 04:44:07;;;;;;;14.33;11.80;;;;;;;14.76;68.58;100309.47;21062918;28;20283;-79
2023/08/09 04:54:11;;;;;;;16.75;12.35;;;;;;;14.75;67.13;100310.66;21076805;28;20226;-80
2023/08/09 05:04:13;;;;;;;14.50;12.03;;;;;;;14.94;66.24;100316.50;21098748;28;20221;-79
2023/08/09 05:14:16;;;;;;;11.20;10.00;;;;;;;14.71;64.32;100312.53;21028436;28;20219;-78
2023/08/09 05:24:19;;;;;;;12.27;10.23;;;;;;;14.34;65.63;100332.44;21040542;28;20191;-85
2023/08/09 05:34:21;;;;;;;18.77;12.10;;;;;;;14.37;65.53;100343.03;21022743;28;20259;-78
2023/08/09 05:44:25;;;;;;;16.03;12.80;;;;;;;14.78;65.82;100338.28;21050674;28;20260;-88
2023/08/09 05:54:28;;;;;;;16.70;13.27;;;;;;;14.98;66.45;100362.78;21012561;28;20351;-81
2023/08/09 06:04:30;;;;;;;18.87;13.27;;;;;;;15.31;65.71;100393.78;21050517;28;20214;-78
2023/08/09 06:14:33;;;;;;;14.48;11.90;;;;;;;15.28;65.31;100393.66;21023231;28;20240;-78
2023/08/09 06:24:35;;;;;;;15.60;12.10;;;;;;;15.09;66.92;100414.97;21044442;28;20207;-84
2023/08/09 06:34:38;;;;;;;13.60;10.38;;;;;;;15.06;66.33;100415.69;21009329;28;20222;-88
2023/08/09 06:44:40;;;;;;;12.18;9.63;;;;;;;15.03;63.14;100422.06;21044263;28;20291;-78
2023/08/09 06:54:43;;;;;;;13.63;10.07;;;;;;;15.18;65.81;100433.88;21045964;28;20542;-82
2023/08/09 07:04:52;;;;;;;10.40;8.93;;;;;;;15.00;64.43;100434.13;21016952;28;20278;-78
2023/08/09 07:14:55;;;;;;;8.70;7.80;;;;;;;15.26;59.68;100447.06;21028410;28;20345;-87
2023/08/09 07:24:57;;;;;;;12.13;9.70;;;;;;;15.59;59.89;100461.84;21021823;28;20195;-88
2023/08/09 07:35:03;;;;;;;11.63;9.93;;;;;;;16.14;59.86;100474.38;21020225;28;20267;-78
2023/08/09 07:45:07;;;;;;;12.00;8.88;;;;;;;15.87;61.28;100483.75;21007419;28;20592;-79
2023/08/09 07:55:09;;;;;;;8.95;6.70;;;;;;;16.33;57.79;100480.22;21018360;28;20252;-86
2023/08/09 08:05:13;;;;;;;8.30;7.50;;;;;;;16.30;60.73;100491.47;21038523;28;20574;-87
2023/08/09 08:15:17;;;;;;;7.50;6.68;;;;;;;15.98;57.84;100513.28;21033369;28;20561;-83
2023/08/09 08:25:19;;;;;;;6.43;5.45;;;;;;;16.13;53.57;100516.16;21012214;28;20187;-85
2023/08/09 08:35:33;;;;;;;7.35;5.85;;;;;;;17.58;51.83;100506.88;21056696;28;20507;-81
2023/08/09 08:45:38;;;;;;;5.43;4.80;;;;;;;16.91;52.19;100511.75;21019325;28;20222;-79
2023/08/09 08:55:41;;;;;;;5.35;4.47;;;;;;;16.70;50.58;100499.88;21048496;28;20614;-84
2023/08/09 09:05:44;;;;;;;6.20;4.75;;;;;;;17.40;49.77;100506.50;21039294;28;20284;-81
2023/08/09 09:15:46;;;;;;;7.10;5.13;;;;;;;18.27;53.72;100517.34;21026731;28;20279;-86
2023/08/09 09:26:01;;;;;;;4.43;3.45;;;;;;;18.13;50.03;100524.78;21023365;28;20240;-78
2023/08/09 09:36:04;;;;;;;3.95;3.50;;;;;;;18.09;48.96;100518.16;21008183;28;20646;-78
2023/08/09 09:46:39;;;;;;;3.80;3.13;;;;;;;17.64;44.35;100525.34;21034005;28;20581;-78
2023/08/09 09:56:42;;;;;;;4.38;3.65;;;;;;;18.07;47.38;100546.19;21050332;28;20218;-78
2023/08/09 10:06:46;;;;;;;4.13;3.35;;;;;;;18.55;46.11;100539.84;21016168;28;20276;-80
2023/08/09 10:16:50;;;;;;;8.15;4.10;;;;;;;18.92;42.46;100553.59;21046206;28;20219;-78
2023/08/09 10:27:04;;;;;;;10.32;5.40;;;;;;;19.03;42.38;100553.75;21078779;28;20198;-83
2023/08/09 10:37:07;;;;;;;7.57;4.85;;;;;;;18.18;41.96;100575.75;21030541;28;20515;-85
2023/08/09 10:47:11;;;;;;;5.55;3.90;;;;;;;18.25;40.96;100573.03;21018153;28;20267;-83
2023/08/09 10:57:14;;;;;;;11.13;5.43;;;;;;;19.19;41.34;100557.31;21057938;28;20222;-84
2023/08/09 11:07:20;;;;;;;8.32;4.43;;;;;;;18.63;41.25;100561.63;21037792;28;20263;-78
2023/08/09 11:17:22;;;;;;;8.48;5.80;;;;;;;19.76;41.09;100563.91;21039542;28;20222;-85
2023/08/09 11:27:25;;;;;;;6.95;4.95;;;;;;;19.55;39.60;100581.53;21027674;28;20198;-88
2023/08/09 11:37:29;;;;;;;6.32;4.70;;;;;;;19.17;39.04;100583.34;21045535;28;20222;-79
2023/08/09 11:47:31;;;;;;;7.55;5.15;;;;;;;19.22;41.52;100580.19;21015283;28;20222;-78
2023/08/09 11:57:35;;;;;;;6.90;4.80;;;;;;;19.08;39.68;100588.50;21032839;28;20281;-86
2023/08/09 12:07:37;;;;;;;5.28;4.38;;;;;;;19.66;40.21;100602.50;21018445;28;20618;-80
2023/08/09 12:17:40;;;;;;;4.43;3.08;;;;;;;19.14;41.10;100611.81;21037047;28;20365;-77
2023/08/09 12:27:43;;;;;;;7.38;3.70;;;;;;;19.04;40.22;100624.69;21063050;28;20430;-78
2023/08/09 12:37:46;;;;;;;7.40;3.38;;;;;;;19.32;39.63;100625.22;21044899;28;20544;-87
2023/08/09 12:47:53;;;;;;;5.03;3.75;;;;;;;18.22;41.35;100622.19;21031146;28;20556;-82
2023/08/09 12:57:56;;;;;;;4.65;3.35;;;;;;;19.26;40.36;100632.41;21041880;28;20222;-84
2023/08/09 13:07:58;;;;;;;3.53;2.75;;;;;;;18.92;38.67;100636.28;21053509;28;20218;-84
2023/08/09 13:18:01;;;;;;;4.25;3.22;;;;;;;19.80;37.98;100637.00;21032623;28;20275;-78
2023/08/09 13:28:04;;;;;;;4.95;3.55;;;;;;;19.70;37.10;100626.25;21017634;28;20194;-81
2023/08/09 13:38:08;;;;;;;4.13;3.00;;;;;;;20.19;36.62;100625.34;21032339;28;20222;-86
2023/08/09 13:48:10;;;;;;;3.78;2.63;;;;;;;19.70;36.91;100629.09;21040924;28;20283;-79
2023/08/09 13:58:13;;;;;;;3.42;2.42;;;;;;;19.51;36.75;100632.03;21028294;28;20222;-77
2023/08/09 14:08:17;;;;;;;2.75;1.45;;;;;;;19.71;37.57;100636.47;21029682;28;20476;-77
2023/08/09 14:18:20;;;;;;;4.05;1.20;;;;;;;19.83;38.76;100633.38;21047078;28;20214;-77
2023/08/09 14:28:25;;;;;;;3.72;1.15;;;;;;;20.07;37.63;100622.72;21019132;28;20187;-82
2023/08/09 14:38:28;;;;;;;4.97;1.35;;;;;;;20.91;37.91;100619.28;21035131;28;20279;-82
2023/08/09 14:48:30;;;;;;;2.00;1.17;;;;;;;20.46;37.44;100626.91;21029487;28;20683;-81
2023/08/09 14:58:33;;;;;;;3.00;0.90;;;;;;;20.87;37.39;100638.44;21021350;28;20214;-85
2023/08/09 15:08:35;;;;;;;1.55;1.00;;;;;;;21.05;36.96;100630.84;21060090;28;20210;-78
2023/08/09 15:18:40;;;;;;;1.50;1.40;;;;;;;20.63;38.45;100637.78;21025828;28;20229;-82
2023/08/09 15:28:43;;;;;;;7.13;1.35;;;;;;;20.09;39.08;100637.44;21051848;28;20456;-86
2023/08/09 15:38:46;;;;;;;2.33;1.27;;;;;;;20.71;39.13;100632.97;21054458;28;20214;-79
2023/08/09 15:48:49;;;;;;;3.05;0.90;;;;;;;20.16;39.63;100624.06;21024340;28;20435;-79
2023/08/09 15:58:51;;;;;;;3.38;1.15;;;;;;;20.16;41.07;100638.34;21039920;28;20623;-81
2023/08/09 16:08:54;;;;;;;1.60;1.40;;;;;;;19.89;40.62;100631.81;21035886;28;20219;-82
2023/08/09 16:18:57;;;;;;;6.22;2.42;;;;;;;20.61;40.22;100634.50;21033299;28;20688;-81
2023/08/09 16:28:59;;;;;;;5.22;2.08;;;;;;;19.87;41.92;100631.41;21038187;28;20228;-80
2023/08/09 16:39:02;;;;;;;3.67;2.38;;;;;;;21.08;39.65;100635.78;21044326;28;20244;-79
2023/08/09 16:49:05;;;;;;;2.25;1.48;;;;;;;20.56;39.55;100634.81;21052796;28;20223;-77
2023/08/09 16:59:07;;;;;;;1.63;1.20;;;;;;;20.67;40.36;100638.63;21004735;28;20278;-81
2023/08/09 17:09:10;;;;;;;1.70;1.10;;;;;;;20.33;41.33;100634.09;21022601;28;20226;-82
2023/08/09 17:19:13;;;;;;;3.22;1.48;;;;;;;20.77;39.92;100636.31;21016528;28;20644;-78
2023/08/09 17:29:15;;;;;;;2.70;1.10;;;;;;;20.78;41.60;100638.78;21001545;28;20195;-78
2023/08/09 17:39:19;;;;;;;3.42;1.40;;;;;;;19.31;44.03;100640.69;20996784;28;20275;-77
2023/08/09 17:49:22;;;;;;;2.83;1.55;;;;;;;19.52;44.07;100662.22;21051809;28;20215;-77
2023/08/09 17:59:24;;;;;;;2.45;1.13;;;;;;;19.27;44.51;100668.31;20994705;28;20222;-81
2023/08/09 18:09:27;;;;;;;4.45;0.95;;;;;;;19.01;45.11;100688.19;21012460;28;20279;-79
2023/08/09 18:19:29;;;;;;;1.50;0.85;;;;;;;19.26;44.54;100689.47;21002048;28;20214;-88
2023/08/09 18:29:32;;;;;;;4.50;1.02;;;;;;;19.06;44.03;100712.75;21029119;28;20265;-83
2023/08/09 18:39:35;;;;;;;2.15;0.90;;;;;;;19.15;42.85;100734.09;21015098;28;20219;-78
2023/08/09 18:49:38;;;;;;;2.60;0.70;;;;;;;18.59;43.68;100728.84;21044729;28;20226;-78
2023/08/09 18:59:40;;;;;;;4.60;0.95;;;;;;;18.88;41.87;100740.88;21045904;28;20738;-77
2023/08/09 19:09:45;;;;;;;2.97;0.80;;;;;;;18.82;42.03;100754.66;21017696;28;20219;-79
2023/08/09 19:19:47;;;;;;;3.28;0.60;;;;;;;18.87;42.50;100762.06;20996804;28;20218;-80
2023/08/09 19:29:50;;;;;;;1.35;0.98;;;;;;;18.72;41.95;100783.72;20997385;28;20596;-79
2023/08/09 19:39:53;;;;;;;2.63;0.77;;;;;;;18.55;42.92;100790.66;21035432;28;20568;-78
2023/08/09 19:49:55;;;;;;;1.55;0.55;;;;;;;18.46;43.15;100798.59;21017734;28;20267;-78
2023/08/09 19:59:59;;;;;;;2.22;0.80;;;;;;;18.29;43.65;100810.41;21020900;28;20225;-79
2023/08/09 20:10:01;;;;;;;2.58;0.55;;;;;;;17.87;46.51;100821.50;21008433;28;20279;-81
2023/08/09 20:20:04;;;;;;;2.47;0.70;;;;;;;17.24;49.59;100831.97;21009124;28;20276;-79
2023/08/09 20:30:08;;;;;;;1.20;0.60;;;;;;;17.04;48.52;100839.47;21006049;28;20202;-79
2023/08/09 20:40:11;;;;;;;2.83;0.90;;;;;;;17.27;47.70;100846.31;21006296;28;20225;-79
2023/08/09 20:50:14;;;;;;;3.45;0.85;;;;;;;17.36;49.71;100851.81;21030399;28;20226;-79
2023/08/09 21:00:17;;;;;;;4.13;1.20;;;;;;;17.02;50.30;100865.41;21034188;28;20241;-80
2023/08/09 21:10:20;;;;;;;3.05;1.13;;;;;;;16.85;51.50;100872.22;21020758;28;20221;-80
2023/08/09 21:20:23;;;;;;;2.45;0.85;;;;;;;16.37;53.26;100872.25;21034206;28;20221;-80
2023/08/09 21:30:26;;;;;;;3.70;1.10;;;;;;;16.45;53.70;100871.31;21023892;28;20203;-80
2023/08/09 21:40:28;;;;;;;3.63;0.80;;;;;;;16.56;52.34;100885.88;21050926;28;20275;-81
2023/08/09 21:50:31;;;;;;;1.95;1.15;;;;;;;16.21;53.91;100892.03;21069053;28;20221;-80
2023/08/09 22:00:34;;;;;;;2.42;1.30;;;;;;;16.05;55.09;100876.84;21009004;28;20226;-79
2023/08/09 22:10:37;;;;;;;8.03;1.60;;;;;;;16.33;54.78;100883.50;21041197;28;20210;-79
2023/08/09 22:20:39;;;;;;;4.83;1.80;;;;;;;15.89;55.97;100896.56;20986697;28;20311;-79
2023/08/09 22:30:45;;;;;;;4.65;2.00;;;;;;;15.60;56.86;100897.50;21031350;28;20677;-81
2023/08/09 22:40:47;;;;;;;2.42;1.48;;;;;;;15.75;56.86;100896.03;21050300;28;20987;-80
2023/08/09 22:50:50;;;;;;;3.22;1.88;;;;;;;15.44;58.04;100920.06;20985470;28;20268;-80
2023/08/09 23:00:53;;;;;;;6.20;1.67;;;;;;;15.33;59.16;100929.34;21000727;28;21477;-81
2023/08/09 23:10:55;;;;;;;2.70;2.00;;;;;;;15.55;58.11;100919.63;21044357;28;20488;-80
2023/08/09 23:20:58;;;;;;;3.03;1.47;;;;;;;16.05;55.28;100910.91;21032091;28;20632;-81
2023/08/09 23:31:01;;;;;;;3.20;1.40;;;;;;;15.90;56.21;100925.78;20968643;28;20199;-81
2023/08/09 23:41:07;;;;;;;5.03;1.47;;;;;;;15.86;56.40;100936.16;21039399;28;20219;-80
2023/08/09 23:51:09;;;;;;;4.88;1.00;;;;;;;16.26;52.80;100950.56;21032958;28;20247;-79
